sensor_id;sensor_type;location;lat;lon;timestamp;P1;durP1;ratioP1;P2;durP2;ratioP2
1603;SDS011;795;49.296;11.348;2022-10-29T00:00:55;5.50;;;4.60;;
1603;SDS011;795;49.296;11.348;2022-10-29T00:03:23;5.20;;;4.70;;
1603;SDS011;795;49.296;11.348;2022-10-29T00:05:59;11.33;;;5.40;;
1603;SDS011;795;49.296;11.348;2022-10-29T00:08:31;6.33;;;4.60;;
1603;SDS011;795;49.296;11.348;2022-10-29T00:11:05;6.93;;;6.10;;
1603;SDS011;795;49.296;11.348;2022-10-29T00:13:46;9.60;;;4.37;;
1603;SDS011;795;49.296;11.348;2022-10-29T00:16:21;10.00;;;4.40;;
1603;SDS011;795;49.296;11.348;2022-10-29T00:18:53;5.40;;;4.90;;
1603;SDS011;795;49.296;11.348;2022-10-29T00:21:23;12.53;;;8.03;;
1603;SDS011;795;49.296;11.348;2022-10-29T00:23:52;10.77;;;4.90;;
1603;SDS011;795;49.296;11.348;2022-10-29T00:26:20;5.70;;;5.20;;
1603;SDS011;795;49.296;11.348;2022-10-29T00:28:51;7.33;;;4.60;;
1603;SDS011;795;49.296;11.348;2022-10-29T00:31:21;8.10;;;6.70;;
1603;SDS011;795;49.296;11.348;2022-10-29T00:33:50;5.50;;;5.00;;
1603;SDS011;795;49.296;11.348;2022-10-29T00:36:24;7.27;;;5.20;;
1603;SDS011;795;49.296;11.348;2022-10-29T00:38:55;7.70;;;5.10;;
1603;SDS011;795;49.296;11.348;2022-10-29T00:41:23;6.77;;;4.70;;
1603;SDS011;795;49.296;11.348;2022-10-29T00:46:44;10.97;;;5.30;;
1603;SDS011;795;49.296;11.348;2022-10-29T00:49:21;5.70;;;5.10;;
1603;SDS011;795;49.296;11.348;2022-10-29T00:51:51;6.47;;;4.83;;
1603;SDS011;795;49.296;11.348;2022-10-29T00:54:19;5.80;;;4.03;;
1603;SDS011;795;49.296;11.348;2022-10-29T00:56:46;7.63;;;5.97;;
1603;SDS011;795;49.296;11.348;2022-10-29T00:59:23;8.10;;;4.57;;
1603;SDS011;795;49.296;11.348;2022-10-29T01:01:51;9.50;;;5.73;;
1603;SDS011;795;49.296;11.348;2022-10-29T01:04:21;6.27;;;4.43;;
1603;SDS011;795;49.296;11.348;2022-10-29T01:06:51;8.27;;;4.90;;
1603;SDS011;795;49.296;11.348;2022-10-29T01:09:19;5.20;;;4.60;;
1603;SDS011;795;49.296;11.348;2022-10-29T01:15:20;5.50;;;5.00;;
1603;SDS011;795;49.296;11.348;2022-10-29T01:28:05;5.87;;;5.27;;
1603;SDS011;795;49.296;11.348;2022-10-29T01:31:10;5.57;;;4.97;;
1603;SDS011;795;49.296;11.348;2022-10-29T01:34:24;8.27;;;5.37;;
1603;SDS011;795;49.296;11.348;2022-10-29T01:37:36;6.50;;;5.30;;
1603;SDS011;795;49.296;11.348;2022-10-29T01:40:46;6.73;;;5.20;;
1603;SDS011;795;49.296;11.348;2022-10-29T01:44:13;6.37;;;4.60;;
1603;SDS011;795;49.296;11.348;2022-10-29T01:47:13;6.17;;;5.37;;
1603;SDS011;795;49.296;11.348;2022-10-29T01:49:50;7.67;;;5.10;;
1603;SDS011;795;49.296;11.348;2022-10-29T01:52:27;4.90;;;4.50;;
1603;SDS011;795;49.296;11.348;2022-10-29T01:55:00;7.53;;;4.90;;
1603;SDS011;795;49.296;11.348;2022-10-29T01:57:32;7.20;;;5.30;;
1603;SDS011;795;49.296;11.348;2022-10-29T02:00:07;7.37;;;5.73;;
1603;SDS011;795;49.296;11.348;2022-10-29T02:02:56;6.80;;;5.00;;
1603;SDS011;795;49.296;11.348;2022-10-29T02:09:19;8.53;;;7.27;;
1603;SDS011;795;49.296;11.348;2022-10-29T02:12:02;8.50;;;7.00;;
1603;SDS011;795;49.296;11.348;2022-10-29T02:17:43;5.77;;;5.20;;
1603;SDS011;795;49.296;11.348;2022-10-29T02:20:11;7.93;;;5.10;;
1603;SDS011;795;49.296;11.348;2022-10-29T02:22:41;8.93;;;4.27;;
1603;SDS011;795;49.296;11.348;2022-10-29T02:25:08;5.47;;;4.60;;
1603;SDS011;795;49.296;11.348;2022-10-29T02:27:37;5.70;;;4.90;;
1603;SDS011;795;49.296;11.348;2022-10-29T02:30:04;11.10;;;5.10;;
1603;SDS011;795;49.296;11.348;2022-10-29T02:32:32;12.33;;;5.00;;
1603;SDS011;795;49.296;11.348;2022-10-29T02:34:59;5.60;;;4.43;;
1603;SDS011;795;49.296;11.348;2022-10-29T02:37:27;5.67;;;5.17;;
1603;SDS011;795;49.296;11.348;2022-10-29T02:39:54;7.73;;;5.60;;
1603;SDS011;795;49.296;11.348;2022-10-29T02:42:21;6.90;;;5.40;;
1603;SDS011;795;49.296;11.348;2022-10-29T02:44:48;6.70;;;5.47;;
1603;SDS011;795;49.296;11.348;2022-10-29T02:47:15;4.60;;;4.20;;
1603;SDS011;795;49.296;11.348;2022-10-29T02:49:42;5.73;;;5.23;;
1603;SDS011;795;49.296;11.348;2022-10-29T02:52:09;8.33;;;5.40;;
1603;SDS011;795;49.296;11.348;2022-10-29T02:54:36;6.30;;;5.10;;
1603;SDS011;795;49.296;11.348;2022-10-29T02:57:04;6.87;;;5.03;;
1603;SDS011;795;49.296;11.348;2022-10-29T02:59:32;6.80;;;5.30;;
1603;SDS011;795;49.296;11.348;2022-10-29T03:01:59;8.23;;;5.70;;
1603;SDS011;795;49.296;11.348;2022-10-29T03:04:26;8.70;;;6.17;;
1603;SDS011;795;49.296;11.348;2022-10-29T03:06:53;8.13;;;5.20;;
1603;SDS011;795;49.296;11.348;2022-10-29T03:09:20;5.63;;;5.07;;
1603;SDS011;795;49.296;11.348;2022-10-29T03:11:47;7.40;;;5.27;;
1603;SDS011;795;49.296;11.348;2022-10-29T03:14:14;7.80;;;5.70;;
1603;SDS011;795;49.296;11.348;2022-10-29T03:16:41;5.83;;;5.30;;
1603;SDS011;795;49.296;11.348;2022-10-29T03:19:07;6.40;;;5.30;;
1603;SDS011;795;49.296;11.348;2022-10-29T03:21:35;10.43;;;5.40;;
1603;SDS011;795;49.296;11.348;2022-10-29T03:24:03;5.77;;;5.27;;
1603;SDS011;795;49.296;11.348;2022-10-29T03:26:30;8.63;;;5.63;;
1603;SDS011;795;49.296;11.348;2022-10-29T03:28:57;10.23;;;5.90;;
1603;SDS011;795;49.296;11.348;2022-10-29T03:31:24;5.40;;;4.47;;
1603;SDS011;795;49.296;11.348;2022-10-29T03:33:51;6.57;;;5.30;;
1603;SDS011;795;49.296;11.348;2022-10-29T03:36:18;9.70;;;4.80;;
1603;SDS011;795;49.296;11.348;2022-10-29T03:38:45;6.70;;;5.20;;
1603;SDS011;795;49.296;11.348;2022-10-29T03:41:12;6.40;;;5.30;;
1603;SDS011;795;49.296;11.348;2022-10-29T03:43:40;13.93;;;6.10;;
1603;SDS011;795;49.296;11.348;2022-10-29T03:46:07;9.23;;;5.80;;
1603;SDS011;795;49.296;11.348;2022-10-29T03:48:34;7.83;;;5.90;;
1603;SDS011;795;49.296;11.348;2022-10-29T03:51:02;9.57;;;5.67;;
1603;SDS011;795;49.296;11.348;2022-10-29T03:53:31;6.20;;;5.60;;
1603;SDS011;795;49.296;11.348;2022-10-29T03:56:01;7.57;;;5.10;;
1603;SDS011;795;49.296;11.348;2022-10-29T03:58:29;7.47;;;5.53;;
1603;SDS011;795;49.296;11.348;2022-10-29T04:00:57;8.13;;;6.30;;
1603;SDS011;795;49.296;11.348;2022-10-29T04:03:31;9.80;;;5.50;;
1603;SDS011;795;49.296;11.348;2022-10-29T04:06:07;9.10;;;4.73;;
1603;SDS011;795;49.296;11.348;2022-10-29T04:08:40;6.80;;;5.53;;
1603;SDS011;795;49.296;11.348;2022-10-29T04:11:09;8.07;;;5.73;;
1603;SDS011;795;49.296;11.348;2022-10-29T04:13:38;6.97;;;5.60;;
1603;SDS011;795;49.296;11.348;2022-10-29T04:16:06;5.60;;;5.00;;
1603;SDS011;795;49.296;11.348;2022-10-29T04:18:33;9.50;;;5.80;;
1603;SDS011;795;49.296;11.348;2022-10-29T04:21:00;6.70;;;6.10;;
1603;SDS011;795;49.296;11.348;2022-10-29T04:23:48;17.57;;;5.50;;
1603;SDS011;795;49.296;11.348;2022-10-29T04:26:36;7.80;;;5.43;;
1603;SDS011;795;49.296;11.348;2022-10-29T04:29:23;8.10;;;5.33;;
1603;SDS011;795;49.296;11.348;2022-10-29T04:31:50;10.60;;;5.63;;
1603;SDS011;795;49.296;11.348;2022-10-29T04:34:17;6.90;;;5.83;;
1603;SDS011;795;49.296;11.348;2022-10-29T04:36:44;6.80;;;5.87;;
1603;SDS011;795;49.296;11.348;2022-10-29T04:39:11;9.27;;;6.30;;
1603;SDS011;795;49.296;11.348;2022-10-29T04:41:38;6.30;;;5.30;;
1603;SDS011;795;49.296;11.348;2022-10-29T04:44:05;7.87;;;6.00;;
1603;SDS011;795;49.296;11.348;2022-10-29T04:46:31;7.80;;;6.27;;
1603;SDS011;795;49.296;11.348;2022-10-29T04:48:58;12.53;;;6.50;;
1603;SDS011;795;49.296;11.348;2022-10-29T04:51:26;10.63;;;6.40;;
1603;SDS011;795;49.296;11.348;2022-10-29T04:53:53;9.67;;;6.17;;
1603;SDS011;795;49.296;11.348;2022-10-29T04:56:20;14.03;;;6.03;;
1603;SDS011;795;49.296;11.348;2022-10-29T04:58:49;9.43;;;6.43;;
1603;SDS011;795;49.296;11.348;2022-10-29T05:01:17;7.57;;;5.70;;
1603;SDS011;795;49.296;11.348;2022-10-29T05:03:45;8.90;;;6.07;;
1603;SDS011;795;49.296;11.348;2022-10-29T05:06:12;11.17;;;6.30;;
1603;SDS011;795;49.296;11.348;2022-10-29T05:08:38;10.30;;;6.83;;
1603;SDS011;795;49.296;11.348;2022-10-29T05:11:06;12.20;;;6.63;;
1603;SDS011;795;49.296;11.348;2022-10-29T05:13:33;10.03;;;6.90;;
1603;SDS011;795;49.296;11.348;2022-10-29T05:16:00;13.50;;;7.10;;
1603;SDS011;795;49.296;11.348;2022-10-29T05:18:27;11.73;;;7.60;;
1603;SDS011;795;49.296;11.348;2022-10-29T05:20:54;8.50;;;7.70;;
1603;SDS011;795;49.296;11.348;2022-10-29T05:23:22;13.60;;;7.80;;
1603;SDS011;795;49.296;11.348;2022-10-29T05:25:49;9.80;;;7.80;;
1603;SDS011;795;49.296;11.348;2022-10-29T05:28:18;10.63;;;8.70;;
1603;SDS011;795;49.296;11.348;2022-10-29T05:30:49;17.93;;;8.60;;
1603;SDS011;795;49.296;11.348;2022-10-29T05:33:19;9.13;;;7.50;;
1603;SDS011;795;49.296;11.348;2022-10-29T05:35:49;13.53;;;7.77;;
1603;SDS011;795;49.296;11.348;2022-10-29T05:38:17;10.13;;;8.00;;
1603;SDS011;795;49.296;11.348;2022-10-29T05:40:44;8.30;;;7.57;;
1603;SDS011;795;49.296;11.348;2022-10-29T05:43:12;10.10;;;9.10;;
1603;SDS011;795;49.296;11.348;2022-10-29T05:45:42;15.73;;;8.37;;
1603;SDS011;795;49.296;11.348;2022-10-29T05:48:10;10.30;;;9.00;;
1603;SDS011;795;49.296;11.348;2022-10-29T05:50:38;29.03;;;8.17;;
1603;SDS011;795;49.296;11.348;2022-10-29T05:53:06;11.17;;;7.63;;
1603;SDS011;795;49.296;11.348;2022-10-29T05:55:38;8.27;;;7.40;;
1603;SDS011;795;49.296;11.348;2022-10-29T05:58:06;17.67;;;7.90;;
1603;SDS011;795;49.296;11.348;2022-10-29T06:00:39;13.37;;;7.40;;
1603;SDS011;795;49.296;11.348;2022-10-29T06:03:16;8.00;;;7.20;;
1603;SDS011;795;49.296;11.348;2022-10-29T06:05:47;21.00;;;9.20;;
1603;SDS011;795;49.296;11.348;2022-10-29T06:08:15;8.00;;;7.20;;
1603;SDS011;795;49.296;11.348;2022-10-29T06:10:43;8.67;;;7.77;;
1603;SDS011;795;49.296;11.348;2022-10-29T06:13:11;6.63;;;5.93;;
1603;SDS011;795;49.296;11.348;2022-10-29T06:15:44;8.73;;;6.60;;
1603;SDS011;795;49.296;11.348;2022-10-29T06:18:13;10.80;;;7.17;;
1603;SDS011;795;49.296;11.348;2022-10-29T06:20:41;6.60;;;5.90;;
1603;SDS011;795;49.296;11.348;2022-10-29T06:23:08;7.63;;;7.00;;
1603;SDS011;795;49.296;11.348;2022-10-29T06:25:36;11.90;;;7.43;;
1603;SDS011;795;49.296;11.348;2022-10-29T06:28:04;9.53;;;8.23;;
1603;SDS011;795;49.296;11.348;2022-10-29T06:30:40;10.73;;;8.07;;
1603;SDS011;795;49.296;11.348;2022-10-29T06:33:14;9.67;;;7.63;;
1603;SDS011;795;49.296;11.348;2022-10-29T06:35:43;12.20;;;9.17;;
1603;SDS011;795;49.296;11.348;2022-10-29T06:38:10;12.57;;;7.97;;
1603;SDS011;795;49.296;11.348;2022-10-29T06:40:39;12.43;;;8.97;;
1603;SDS011;795;49.296;11.348;2022-10-29T06:43:10;15.00;;;9.90;;
1603;SDS011;795;49.296;11.348;2022-10-29T06:45:37;10.10;;;9.10;;
1603;SDS011;795;49.296;11.348;2022-10-29T06:48:05;14.30;;;9.37;;
1603;SDS011;795;49.296;11.348;2022-10-29T06:50:32;11.00;;;9.70;;
1603;SDS011;795;49.296;11.348;2022-10-29T06:53:00;22.10;;;10.37;;
1603;SDS011;795;49.296;11.348;2022-10-29T06:55:34;12.13;;;9.40;;
1603;SDS011;795;49.296;11.348;2022-10-29T06:58:11;19.13;;;11.20;;
1603;SDS011;795;49.296;11.348;2022-10-29T07:00:41;14.73;;;10.80;;
1603;SDS011;795;49.296;11.348;2022-10-29T07:03:11;14.83;;;11.90;;
1603;SDS011;795;49.296;11.348;2022-10-29T07:05:41;14.67;;;10.87;;
1603;SDS011;795;49.296;11.348;2022-10-29T07:08:08;11.63;;;10.50;;
1603;SDS011;795;49.296;11.348;2022-10-29T07:10:36;11.40;;;10.20;;
1603;SDS011;795;49.296;11.348;2022-10-29T07:13:04;11.10;;;10.07;;
1603;SDS011;795;49.296;11.348;2022-10-29T07:15:31;15.37;;;10.93;;
1603;SDS011;795;49.296;11.348;2022-10-29T07:20:34;12.57;;;10.40;;
1603;SDS011;795;49.296;11.348;2022-10-29T07:23:05;15.27;;;10.33;;
1603;SDS011;795;49.296;11.348;2022-10-29T07:25:33;15.10;;;10.60;;
1603;SDS011;795;49.296;11.348;2022-10-29T07:28:06;10.50;;;8.60;;
1603;SDS011;795;49.296;11.348;2022-10-29T07:30:39;11.50;;;9.40;;
1603;SDS011;795;49.296;11.348;2022-10-29T07:33:08;12.27;;;8.93;;
1603;SDS011;795;49.296;11.348;2022-10-29T07:35:36;11.37;;;9.27;;
1603;SDS011;795;49.296;11.348;2022-10-29T07:38:07;18.03;;;10.43;;
1603;SDS011;795;49.296;11.348;2022-10-29T07:40:47;12.17;;;10.23;;
1603;SDS011;795;49.296;11.348;2022-10-29T07:43:16;11.00;;;9.30;;
1603;SDS011;795;49.296;11.348;2022-10-29T07:45:46;17.43;;;10.57;;
1603;SDS011;795;49.296;11.348;2022-10-29T07:48:16;12.60;;;10.10;;
1603;SDS011;795;49.296;11.348;2022-10-29T07:50:46;10.50;;;8.80;;
1603;SDS011;795;49.296;11.348;2022-10-29T07:53:15;20.60;;;9.00;;
1603;SDS011;795;49.296;11.348;2022-10-29T07:55:43;14.10;;;9.83;;
1603;SDS011;795;49.296;11.348;2022-10-29T07:58:16;15.00;;;9.90;;
1603;SDS011;795;49.296;11.348;2022-10-29T08:03:37;16.30;;;10.43;;
1603;SDS011;795;49.296;11.348;2022-10-29T08:06:04;12.77;;;9.60;;
1603;SDS011;795;49.296;11.348;2022-10-29T08:08:31;11.63;;;8.87;;
1603;SDS011;795;49.296;11.348;2022-10-29T08:11:01;9.30;;;8.10;;
1603;SDS011;795;49.296;11.348;2022-10-29T08:13:30;18.13;;;9.60;;
1603;SDS011;795;49.296;11.348;2022-10-29T08:15:57;10.87;;;8.57;;
1603;SDS011;795;49.296;11.348;2022-10-29T08:18:25;10.60;;;7.40;;
1603;SDS011;795;49.296;11.348;2022-10-29T08:20:52;12.63;;;9.60;;
1603;SDS011;795;49.296;11.348;2022-10-29T08:23:19;16.80;;;9.37;;
1603;SDS011;795;49.296;11.348;2022-10-29T08:25:46;13.27;;;9.40;;
1603;SDS011;795;49.296;11.348;2022-10-29T08:28:14;12.53;;;8.03;;
1603;SDS011;795;49.296;11.348;2022-10-29T08:30:41;9.90;;;8.00;;
1603;SDS011;795;49.296;11.348;2022-10-29T08:33:09;9.53;;;8.37;;
1603;SDS011;795;49.296;11.348;2022-10-29T08:35:36;12.67;;;8.40;;
1603;SDS011;795;49.296;11.348;2022-10-29T08:38:03;12.73;;;8.20;;
1603;SDS011;795;49.296;11.348;2022-10-29T08:49:29;11.63;;;8.00;;
1603;SDS011;795;49.296;11.348;2022-10-29T08:52:06;8.83;;;7.07;;
1603;SDS011;795;49.296;11.348;2022-10-29T08:57:56;11.53;;;5.97;;
1603;SDS011;795;49.296;11.348;2022-10-29T09:00:47;7.30;;;5.50;;
1603;SDS011;795;49.296;11.348;2022-10-29T09:03:22;9.43;;;6.33;;
1603;SDS011;795;49.296;11.348;2022-10-29T09:08:50;11.67;;;5.90;;
1603;SDS011;795;49.296;11.348;2022-10-29T09:15:29;9.83;;;6.07;;
1603;SDS011;795;49.296;11.348;2022-10-29T09:21:04;9.60;;;6.20;;
1603;SDS011;795;49.296;11.348;2022-10-29T09:24:11;7.73;;;5.30;;
1603;SDS011;795;49.296;11.348;2022-10-29T09:27:11;5.90;;;4.90;;
1603;SDS011;795;49.296;11.348;2022-10-29T09:35:38;9.17;;;5.50;;
1603;SDS011;795;49.296;11.348;2022-10-29T09:41:07;8.20;;;5.50;;
1603;SDS011;795;49.296;11.348;2022-10-29T09:43:58;6.83;;;6.13;;
1603;SDS011;795;49.296;11.348;2022-10-29T09:47:06;6.90;;;5.90;;
1603;SDS011;795;49.296;11.348;2022-10-29T09:50:56;11.93;;;6.57;;
1603;SDS011;795;49.296;11.348;2022-10-29T09:53:10;11.80;;;7.00;;
1603;SDS011;795;49.296;11.348;2022-10-29T09:55:38;7.77;;;6.90;;
1603;SDS011;795;49.296;11.348;2022-10-29T09:58:18;9.60;;;7.57;;
1603;SDS011;795;49.296;11.348;2022-10-29T10:00:52;10.53;;;6.80;;
1603;SDS011;795;49.296;11.348;2022-10-29T10:03:57;8.93;;;7.00;;
1603;SDS011;795;49.296;11.348;2022-10-29T10:06:24;8.93;;;6.67;;
1603;SDS011;795;49.296;11.348;2022-10-29T10:11:36;9.90;;;6.23;;
1603;SDS011;795;49.296;11.348;2022-10-29T10:14:19;9.27;;;6.87;;
1603;SDS011;795;49.296;11.348;2022-10-29T10:16:56;12.77;;;6.20;;
1603;SDS011;795;49.296;11.348;2022-10-29T10:19:27;9.47;;;6.13;;
1603;SDS011;795;49.296;11.348;2022-10-29T10:22:01;12.30;;;5.97;;
1603;SDS011;795;49.296;11.348;2022-10-29T10:27:45;13.83;;;6.60;;
1603;SDS011;795;49.296;11.348;2022-10-29T10:32:29;10.03;;;5.83;;
1603;SDS011;795;49.296;11.348;2022-10-29T10:34:57;8.33;;;6.40;;
1603;SDS011;795;49.296;11.348;2022-10-29T10:37:24;7.60;;;5.70;;
1603;SDS011;795;49.296;11.348;2022-10-29T10:39:59;6.57;;;5.87;;
1603;SDS011;795;49.296;11.348;2022-10-29T10:42:36;8.30;;;5.83;;
1603;SDS011;795;49.296;11.348;2022-10-29T10:45:13;7.13;;;5.20;;
1603;SDS011;795;49.296;11.348;2022-10-29T10:47:56;8.73;;;6.63;;
1603;SDS011;795;49.296;11.348;2022-10-29T10:50:26;6.63;;;5.80;;
1603;SDS011;795;49.296;11.348;2022-10-29T10:52:59;10.73;;;5.17;;
1603;SDS011;795;49.296;11.348;2022-10-29T10:55:51;10.97;;;6.57;;
1603;SDS011;795;49.296;11.348;2022-10-29T10:58:35;10.27;;;5.13;;
1603;SDS011;795;49.296;11.348;2022-10-29T11:01:18;6.40;;;5.77;;
1603;SDS011;795;49.296;11.348;2022-10-29T11:03:59;14.50;;;6.00;;
1603;SDS011;795;49.296;11.348;2022-10-29T11:06:47;10.00;;;5.60;;
1603;SDS011;795;49.296;11.348;2022-10-29T11:09:23;8.97;;;6.20;;
1603;SDS011;795;49.296;11.348;2022-10-29T11:12:05;9.37;;;5.77;;
1603;SDS011;795;49.296;11.348;2022-10-29T11:15:02;8.77;;;5.30;;
1603;SDS011;795;49.296;11.348;2022-10-29T11:20:24;6.20;;;4.90;;
1603;SDS011;795;49.296;11.348;2022-10-29T11:23:10;7.80;;;4.87;;
1603;SDS011;795;49.296;11.348;2022-10-29T11:26:04;9.10;;;5.60;;
1603;SDS011;795;49.296;11.348;2022-10-29T11:28:54;7.07;;;5.87;;
1603;SDS011;795;49.296;11.348;2022-10-29T11:32:11;10.90;;;5.97;;
1603;SDS011;795;49.296;11.348;2022-10-29T11:41:22;6.83;;;4.93;;
1603;SDS011;795;49.296;11.348;2022-10-29T11:44:15;11.73;;;5.17;;
1603;SDS011;795;49.296;11.348;2022-10-29T11:53:17;8.47;;;4.70;;
1603;SDS011;795;49.296;11.348;2022-10-29T11:56:16;8.77;;;5.73;;
1603;SDS011;795;49.296;11.348;2022-10-29T12:12:13;7.03;;;4.93;;
1603;SDS011;795;49.296;11.348;2022-10-29T12:18:41;5.33;;;4.80;;
1603;SDS011;795;49.296;11.348;2022-10-29T12:30:38;13.80;;;5.03;;
1603;SDS011;795;49.296;11.348;2022-10-29T12:40:23;8.67;;;4.87;;
1603;SDS011;795;49.296;11.348;2022-10-29T12:43:01;12.73;;;5.67;;
1603;SDS011;795;49.296;11.348;2022-10-29T12:52:36;7.03;;;4.10;;
1603;SDS011;795;49.296;11.348;2022-10-29T12:55:16;7.00;;;4.37;;
1603;SDS011;795;49.296;11.348;2022-10-29T12:57:47;12.83;;;4.93;;
1603;SDS011;795;49.296;11.348;2022-10-29T13:03:56;6.27;;;4.37;;
1603;SDS011;795;49.296;11.348;2022-10-29T13:09:22;6.23;;;4.13;;
1603;SDS011;795;49.296;11.348;2022-10-29T13:12:02;6.27;;;4.00;;
1603;SDS011;795;49.296;11.348;2022-10-29T13:15:03;4.70;;;4.10;;
1603;SDS011;795;49.296;11.348;2022-10-29T13:17:41;7.60;;;4.40;;
1603;SDS011;795;49.296;11.348;2022-10-29T13:23:29;6.23;;;4.60;;
1603;SDS011;795;49.296;11.348;2022-10-29T13:25:57;9.20;;;4.83;;
1603;SDS011;795;49.296;11.348;2022-10-29T13:39:00;8.10;;;3.67;;
1603;SDS011;795;49.296;11.348;2022-10-29T13:41:52;10.30;;;3.80;;
1603;SDS011;795;49.296;11.348;2022-10-29T13:44:20;6.47;;;3.73;;
1603;SDS011;795;49.296;11.348;2022-10-29T13:49:42;9.60;;;3.60;;
1603;SDS011;795;49.296;11.348;2022-10-29T13:52:15;9.27;;;4.10;;
1603;SDS011;795;49.296;11.348;2022-10-29T13:54:54;5.77;;;3.43;;
1603;SDS011;795;49.296;11.348;2022-10-29T14:00:31;11.07;;;4.33;;
1603;SDS011;795;49.296;11.348;2022-10-29T14:03:24;8.50;;;4.20;;
1603;SDS011;795;49.296;11.348;2022-10-29T14:06:21;6.50;;;4.07;;
1603;SDS011;795;49.296;11.348;2022-10-29T14:09:03;7.23;;;4.00;;
1603;SDS011;795;49.296;11.348;2022-10-29T14:12:03;7.97;;;3.73;;
1603;SDS011;795;49.296;11.348;2022-10-29T14:14:46;6.73;;;3.90;;
1603;SDS011;795;49.296;11.348;2022-10-29T14:17:36;6.17;;;4.23;;
1603;SDS011;795;49.296;11.348;2022-10-29T14:20:17;10.33;;;3.73;;
1603;SDS011;795;49.296;11.348;2022-10-29T14:22:52;7.40;;;3.60;;
1603;SDS011;795;49.296;11.348;2022-10-29T14:31:01;7.43;;;3.80;;
1603;SDS011;795;49.296;11.348;2022-10-29T14:33:42;7.63;;;4.30;;
1603;SDS011;795;49.296;11.348;2022-10-29T14:36:26;10.10;;;4.00;;
1603;SDS011;795;49.296;11.348;2022-10-29T14:39:24;11.20;;;4.20;;
1603;SDS011;795;49.296;11.348;2022-10-29T14:42:57;6.87;;;3.67;;
1603;SDS011;795;49.296;11.348;2022-10-29T14:45:22;8.93;;;4.47;;
1603;SDS011;795;49.296;11.348;2022-10-29T14:47:54;10.90;;;4.80;;
1603;SDS011;795;49.296;11.348;2022-10-29T14:50:48;5.60;;;4.20;;
1603;SDS011;795;49.296;11.348;2022-10-29T14:56:02;10.77;;;4.23;;
1603;SDS011;795;49.296;11.348;2022-10-29T14:58:43;9.73;;;4.10;;
1603;SDS011;795;49.296;11.348;2022-10-29T15:01:13;11.10;;;4.00;;
1603;SDS011;795;49.296;11.348;2022-10-29T15:03:45;10.10;;;4.03;;
1603;SDS011;795;49.296;11.348;2022-10-29T15:06:24;9.30;;;3.93;;
1603;SDS011;795;49.296;11.348;2022-10-29T15:08:58;11.77;;;4.33;;
1603;SDS011;795;49.296;11.348;2022-10-29T15:11:30;10.50;;;4.10;;
1603;SDS011;795;49.296;11.348;2022-10-29T15:17:36;8.97;;;4.30;;
1603;SDS011;795;49.296;11.348;2022-10-29T15:20:42;8.80;;;4.50;;
1603;SDS011;795;49.296;11.348;2022-10-29T15:26:04;6.23;;;4.50;;
1603;SDS011;795;49.296;11.348;2022-10-29T15:28:40;6.17;;;4.40;;
1603;SDS011;795;49.296;11.348;2022-10-29T15:31:55;6.03;;;4.10;;
1603;SDS011;795;49.296;11.348;2022-10-29T15:34:13;10.37;;;5.10;;
1603;SDS011;795;49.296;11.348;2022-10-29T15:36:49;13.07;;;3.90;;
1603;SDS011;795;49.296;11.348;2022-10-29T15:39:26;7.53;;;4.93;;
1603;SDS011;795;49.296;11.348;2022-10-29T15:42:28;9.47;;;5.03;;
1603;SDS011;795;49.296;11.348;2022-10-29T15:47:54;5.70;;;5.00;;
1603;SDS011;795;49.296;11.348;2022-10-29T15:51:01;9.30;;;5.20;;
1603;SDS011;795;49.296;11.348;2022-10-29T15:53:29;12.63;;;5.00;;
1603;SDS011;795;49.296;11.348;2022-10-29T15:55:56;5.30;;;4.80;;
1603;SDS011;795;49.296;11.348;2022-10-29T15:58:23;7.60;;;5.13;;
1603;SDS011;795;49.296;11.348;2022-10-29T16:00:50;7.03;;;4.47;;
1603;SDS011;795;49.296;11.348;2022-10-29T16:03:18;15.07;;;4.13;;
1603;SDS011;795;49.296;11.348;2022-10-29T16:06:02;8.10;;;4.40;;
1603;SDS011;795;49.296;11.348;2022-10-29T16:11:07;6.93;;;4.40;;
1603;SDS011;795;49.296;11.348;2022-10-29T16:13:41;7.63;;;4.30;;
1603;SDS011;795;49.296;11.348;2022-10-29T16:16:10;7.37;;;3.80;;
1603;SDS011;795;49.296;11.348;2022-10-29T16:18:45;5.73;;;4.40;;
1603;SDS011;795;49.296;11.348;2022-10-29T16:21:18;12.87;;;5.63;;
1603;SDS011;795;49.296;11.348;2022-10-29T16:23:51;12.40;;;3.70;;
1603;SDS011;795;49.296;11.348;2022-10-29T16:26:19;7.90;;;4.00;;
1603;SDS011;795;49.296;11.348;2022-10-29T16:28:51;9.33;;;5.07;;
1603;SDS011;795;49.296;11.348;2022-10-29T16:31:20;11.70;;;5.13;;
1603;SDS011;795;49.296;11.348;2022-10-29T16:33:52;7.40;;;4.30;;
1603;SDS011;795;49.296;11.348;2022-10-29T16:36:26;10.23;;;6.00;;
1603;SDS011;795;49.296;11.348;2022-10-29T16:38:53;7.23;;;3.80;;
1603;SDS011;795;49.296;11.348;2022-10-29T16:41:19;9.17;;;4.23;;
1603;SDS011;795;49.296;11.348;2022-10-29T16:43:47;8.57;;;4.53;;
1603;SDS011;795;49.296;11.348;2022-10-29T16:46:14;8.20;;;4.30;;
1603;SDS011;795;49.296;11.348;2022-10-29T16:48:41;8.73;;;3.77;;
1603;SDS011;795;49.296;11.348;2022-10-29T16:51:08;9.77;;;4.40;;
1603;SDS011;795;49.296;11.348;2022-10-29T16:53:35;9.50;;;5.07;;
1603;SDS011;795;49.296;11.348;2022-10-29T16:56:02;9.67;;;4.10;;
1603;SDS011;795;49.296;11.348;2022-10-29T16:58:30;12.47;;;4.10;;
1603;SDS011;795;49.296;11.348;2022-10-29T17:01:01;10.87;;;5.10;;
1603;SDS011;795;49.296;11.348;2022-10-29T17:03:30;6.07;;;4.80;;
1603;SDS011;795;49.296;11.348;2022-10-29T17:06:02;12.80;;;4.67;;
1603;SDS011;795;49.296;11.348;2022-10-29T17:08:32;10.70;;;4.80;;
1603;SDS011;795;49.296;11.348;2022-10-29T17:11:02;8.13;;;5.10;;
1603;SDS011;795;49.296;11.348;2022-10-29T17:13:35;5.97;;;4.57;;
1603;SDS011;795;49.296;11.348;2022-10-29T17:16:10;7.53;;;5.20;;
1603;SDS011;795;49.296;11.348;2022-10-29T17:18:40;9.67;;;5.47;;
1603;SDS011;795;49.296;11.348;2022-10-29T17:21:07;13.13;;;5.27;;
1603;SDS011;795;49.296;11.348;2022-10-29T17:23:35;14.50;;;5.33;;
1603;SDS011;795;49.296;11.348;2022-10-29T17:26:02;11.93;;;5.80;;
1603;SDS011;795;49.296;11.348;2022-10-29T17:28:29;12.30;;;6.10;;
1603;SDS011;795;49.296;11.348;2022-10-29T17:30:56;16.10;;;5.60;;
1603;SDS011;795;49.296;11.348;2022-10-29T17:33:23;12.03;;;5.47;;
1603;SDS011;795;49.296;11.348;2022-10-29T17:35:59;13.23;;;5.00;;
1603;SDS011;795;49.296;11.348;2022-10-29T17:38:40;6.40;;;4.70;;
1603;SDS011;795;49.296;11.348;2022-10-29T17:41:07;9.37;;;5.00;;
1603;SDS011;795;49.296;11.348;2022-10-29T17:43:34;7.67;;;5.87;;
1603;SDS011;795;49.296;11.348;2022-10-29T17:46:01;11.73;;;5.40;;
1603;SDS011;795;49.296;11.348;2022-10-29T17:48:29;9.73;;;5.37;;
1603;SDS011;795;49.296;11.348;2022-10-29T17:50:57;11.43;;;5.50;;
1603;SDS011;795;49.296;11.348;2022-10-29T17:53:28;10.50;;;5.70;;
1603;SDS011;795;49.296;11.348;2022-10-29T17:55:57;10.10;;;7.10;;
1603;SDS011;795;49.296;11.348;2022-10-29T17:58:26;10.13;;;5.80;;
1603;SDS011;795;49.296;11.348;2022-10-29T18:00:53;16.83;;;5.77;;
1603;SDS011;795;49.296;11.348;2022-10-29T18:03:23;6.37;;;5.13;;
1603;SDS011;795;49.296;11.348;2022-10-29T18:05:51;6.53;;;4.93;;
1603;SDS011;795;49.296;11.348;2022-10-29T18:08:18;12.17;;;5.10;;
1603;SDS011;795;49.296;11.348;2022-10-29T18:10:45;11.33;;;5.70;;
1603;SDS011;795;49.296;11.348;2022-10-29T18:13:12;8.70;;;4.10;;
1603;SDS011;795;49.296;11.348;2022-10-29T18:15:38;7.27;;;5.10;;
1603;SDS011;795;49.296;11.348;2022-10-29T18:18:05;14.73;;;4.97;;
1603;SDS011;795;49.296;11.348;2022-10-29T18:20:32;10.23;;;4.90;;
1603;SDS011;795;49.296;11.348;2022-10-29T18:22:59;10.53;;;4.53;;
1603;SDS011;795;49.296;11.348;2022-10-29T18:25:27;12.00;;;5.30;;
1603;SDS011;795;49.296;11.348;2022-10-29T18:27:53;14.07;;;5.73;;
1603;SDS011;795;49.296;11.348;2022-10-29T18:30:21;9.97;;;6.10;;
1603;SDS011;795;49.296;11.348;2022-10-29T18:32:48;13.73;;;6.83;;
1603;SDS011;795;49.296;11.348;2022-10-29T18:35:15;7.00;;;6.27;;
1603;SDS011;795;49.296;11.348;2022-10-29T18:37:42;9.93;;;5.37;;
1603;SDS011;795;49.296;11.348;2022-10-29T18:40:11;11.20;;;5.07;;